Tucumcari Municipal Airport
KTCC : now visible

Airfield :











YOU CAN JOIN US ON...

 
LOGIN :

Register | Disclaimer

   EN    FR    IT 

 









Legend :    VFR   Marginal VFR   IFR   Intensive IFR   Very Intensive IFR
Visi :
Ceiling :
>= 8 km
>= 3000ft
5 to 8 km
1000 to 3000 ft
1500m to 5 km
500 to 1000 ft
800 to 1500m
200 to 500 ft
< 800m
< 200 ft
Symbols :   Thunderstorms  Fog  Heavy snow  Heavy precipitations  Wind > 20 kt







- Airport Elevation : 4065 ft


KTCC - Tucumcari Municipal

CURRENT METAR :
  • 192153Z AUTO 19016KT 10SM CLR 27/M02 A2984 RMK AO2 PK WND 19026/2132 SLP061 T02671022

EXPIRED METARs :
  • 192053Z AUTO 19014G24KT 10SM CLR 26/M02 A2987 RMK AO2 PK WND 15028/2012 SLP074 T02561017 56035
  • 191953Z AUTO 18016G22KT 10SM CLR 26/01 A2990 RMK AO2 SLP078 T02610006

TAF KTCC
Valid from the 19 at 18:00 until the 20 at 18:00 UTC


191726Z 1918/2018 17012KT P6SM BKN250
FM192100 19020G30KT P6SM BKN200
FM200200 16015G22KT P6SM BKN150
FM201500 19015G22KT P6SM SCT100 BKN150
KZAB FIR / North America



MET'MAP, your aeronautical weather chart ! - Copyright ORBIFLY December 2007 - Disclaimer

ORBIFLY MET'MAP TEAM :

Programming & Development : Alexandra Zaïnal
Concept & Development : Baudouin d'Aumeries
Co-Development & Prog : Marc-Olivier Méhu
Technical & hardware support : Manuel Goepfert

Contact : metmap@orbifly.com




SOURCES & CREDITS :

   NOAA       Earth
Advisory